createdAt,value
2018-10-21T00:01:07.183Z,49.87
2018-10-21T00:03:38.243Z,50.53
2018-10-21T00:06:09.268Z,52.47
2018-10-21T00:08:40.296Z,52.97
2018-10-21T00:11:11.452Z,53.40
2018-10-21T00:13:42.692Z,54.20
2018-10-21T00:16:14.038Z,55.07
2018-10-21T00:18:45.509Z,56.57
2018-10-21T00:21:16.960Z,56.03
2018-10-21T00:23:48.187Z,57.17
2018-10-21T00:26:19.536Z,56.00
2018-10-21T00:28:50.799Z,59.00
2018-10-21T00:31:22.155Z,58.13
2018-10-21T00:33:53.155Z,57.57
2018-10-21T00:36:24.216Z,58.30
2018-10-21T00:38:55.598Z,56.70
2018-10-21T00:41:26.964Z,56.17
2018-10-21T00:43:58.307Z,56.80
2018-10-21T00:46:29.720Z,54.77
2018-10-21T00:49:00.713Z,57.10
2018-10-21T00:51:31.906Z,59.23
2018-10-21T00:54:03.064Z,59.90
2018-10-21T00:56:34.131Z,61.13
2018-10-21T00:59:05.763Z,57.97
2018-10-21T01:01:37.172Z,60.73
2018-10-21T01:04:08.892Z,56.60
2018-10-21T01:06:40.144Z,58.43
2018-10-21T01:09:13.668Z,58.50
2018-10-21T01:11:45.250Z,57.00
2018-10-21T01:14:16.557Z,58.87
2018-10-21T01:16:47.767Z,59.20
2018-10-21T01:19:18.948Z,58.97
2018-10-21T01:21:50.136Z,60.23
2018-10-21T01:24:21.200Z,59.27
2018-10-21T01:26:52.900Z,58.60
2018-10-21T01:29:24.091Z,55.83
2018-10-21T01:31:55.330Z,55.40
2018-10-21T01:34:27.274Z,54.50
2018-10-21T01:36:58.395Z,53.37
2018-10-21T01:39:47.221Z,53.60
2018-10-21T01:42:18.347Z,50.57
2018-10-21T01:44:50.015Z,47.90
2018-10-21T01:47:21.344Z,47.73
2018-10-21T01:49:52.540Z,46.40
2018-10-21T01:52:23.907Z,46.37
2018-10-21T01:54:55.334Z,44.27
2018-10-21T01:57:26.740Z,42.63
2018-10-21T01:59:57.884Z,43.97
2018-10-21T02:02:29.052Z,40.60
2018-10-21T02:05:00.071Z,45.50
2018-10-21T02:07:31.432Z,42.23
2018-10-21T02:10:02.901Z,42.60
2018-10-21T02:12:34.043Z,40.83
2018-10-21T02:15:05.646Z,40.83
2018-10-21T02:17:36.828Z,39.23
2018-10-21T02:20:09.245Z,39.53
2018-10-21T02:22:40.982Z,41.10
2018-10-21T02:25:12.395Z,38.87
2018-10-21T02:27:44.185Z,37.70
2018-10-21T02:30:31.602Z,40.23
2018-10-21T02:33:02.919Z,40.07
2018-10-21T02:35:34.488Z,39.37
2018-10-21T02:38:06.107Z,37.73
2018-10-21T02:41:50.511Z,36.00
2018-10-21T02:44:22.339Z,37.13
2018-10-21T02:46:54.660Z,36.80
2018-10-21T02:49:25.895Z,40.57
2018-10-21T02:52:02.335Z,44.83
2018-10-21T02:54:33.395Z,42.33
2018-10-21T02:57:05.793Z,45.43
2018-10-21T02:59:36.776Z,44.33
2018-10-21T03:02:08.533Z,45.67
2018-10-21T03:04:39.723Z,45.27
2018-10-21T03:07:11.160Z,43.50
2018-10-21T03:09:43.133Z,42.27
2018-10-21T03:12:14.515Z,43.17
2018-10-21T03:14:45.828Z,40.87
2018-10-21T03:17:17.048Z,39.57
2018-10-21T03:19:48.066Z,38.70
2018-10-21T03:22:19.469Z,37.70
2018-10-21T03:24:50.812Z,40.70
2018-10-21T03:27:22.289Z,38.87
2018-10-21T03:29:53.609Z,39.07
2018-10-21T03:32:24.763Z,40.47
2018-10-21T03:34:56.268Z,39.80
2018-10-21T03:37:27.363Z,37.27
2018-10-21T03:39:58.562Z,40.10
2018-10-21T03:42:30.050Z,40.43
2018-10-21T03:45:01.148Z,40.30
2018-10-21T03:47:32.540Z,40.70
2018-10-21T03:50:03.762Z,41.87
2018-10-21T03:52:34.938Z,41.90
2018-10-21T03:55:06.339Z,40.50
2018-10-21T03:57:37.486Z,38.07
2018-10-21T04:00:09.858Z,39.53
2018-10-21T04:02:41.051Z,39.03
2018-10-21T04:05:12.291Z,41.57
2018-10-21T04:07:43.819Z,42.13
2018-10-21T04:10:15.506Z,41.57
2018-10-21T04:12:47.324Z,43.73
2018-10-21T04:15:18.399Z,42.80
2018-10-21T04:17:49.591Z,45.57
2018-10-21T04:20:20.791Z,44.43
2018-10-21T04:22:53.326Z,47.40
2018-10-21T04:25:25.231Z,49.57
2018-10-21T04:27:57.212Z,46.07
2018-10-21T04:30:30.414Z,46.63
2018-10-21T04:33:06.267Z,47.93
2018-10-21T04:35:37.357Z,49.37
2018-10-21T04:38:28.665Z,49.93
2018-10-21T04:40:59.848Z,49.77
2018-10-21T04:43:31.199Z,50.70
2018-10-21T04:46:02.579Z,51.17
2018-10-21T04:48:33.764Z,52.23
2018-10-21T04:51:05.112Z,52.00
2018-10-21T04:53:36.345Z,54.70
2018-10-21T04:56:07.608Z,57.50
2018-10-21T04:58:38.919Z,56.87
2018-10-21T05:01:09.932Z,66.10
2018-10-21T05:03:41.287Z,66.97
2018-10-21T05:06:12.314Z,59.83
2018-10-21T05:08:43.731Z,61.77
2018-10-21T05:11:15.127Z,60.67
2018-10-21T05:13:46.735Z,60.17
2018-10-21T05:16:17.959Z,63.67
2018-10-21T05:18:49.859Z,63.37
2018-10-21T05:21:21.223Z,62.50
2018-10-21T05:23:53.215Z,62.20
2018-10-21T05:26:24.630Z,61.33
2018-10-21T05:28:55.956Z,67.50
2018-10-21T05:31:27.156Z,70.67
2018-10-21T05:33:58.859Z,72.17
2018-10-21T05:36:30.140Z,65.07
2018-10-21T05:39:01.179Z,61.33
2018-10-21T05:41:32.590Z,59.10
2018-10-21T05:44:04.006Z,59.87
2018-10-21T05:46:45.321Z,56.37
2018-10-21T05:49:17.133Z,60.00
2018-10-21T05:51:50.336Z,53.13
2018-10-21T05:54:21.896Z,57.83
2018-10-21T05:56:53.220Z,58.63
2018-10-21T05:59:24.432Z,61.07
2018-10-21T06:01:55.611Z,57.37
2018-10-21T06:04:26.813Z,55.23
2018-10-21T06:06:58.315Z,51.77
2018-10-21T06:09:29.421Z,50.50
2018-10-21T06:12:00.798Z,48.27
2018-10-21T06:14:32.152Z,47.97
2018-10-21T06:17:22.226Z,46.17
2018-10-21T06:19:56.775Z,52.03
2018-10-21T06:22:32.415Z,49.93
2018-10-21T06:25:04.548Z,48.20
2018-10-21T06:27:35.904Z,46.80
2018-10-21T06:30:08.158Z,50.27
2018-10-21T06:32:39.240Z,46.90
2018-10-21T06:35:11.076Z,45.53
2018-10-21T06:37:42.412Z,46.03
2018-10-21T06:40:13.914Z,46.80
2018-10-21T06:42:45.210Z,46.73
2018-10-21T06:45:16.702Z,48.50
2018-10-21T06:47:47.759Z,43.83
2018-10-21T06:50:21.517Z,47.63
2018-10-21T06:52:53.070Z,45.83
2018-10-21T06:55:24.106Z,44.93
2018-10-21T06:58:02.448Z,40.47
2018-10-21T07:00:33.511Z,41.43
2018-10-21T07:03:04.855Z,43.27
2018-10-21T07:06:45.804Z,42.00
2018-10-21T07:09:16.933Z,43.43
2018-10-21T07:11:48.142Z,39.67
2018-10-21T07:14:19.291Z,36.37
2018-10-21T07:16:50.788Z,37.70
2018-10-21T07:19:21.885Z,37.73
2018-10-21T07:21:53.116Z,36.67
2018-10-21T07:24:24.267Z,44.43
2018-10-21T07:26:55.496Z,53.43
2018-10-21T07:29:26.748Z,46.53
2018-10-21T07:31:57.835Z,64.33
2018-10-21T07:34:28.999Z,47.23
2018-10-21T07:37:00.187Z,43.93
2018-10-21T07:39:31.423Z,38.63
2018-10-21T07:42:03.155Z,38.80
2018-10-21T07:44:34.388Z,38.13
2018-10-21T07:47:05.872Z,37.20
2018-10-21T07:49:36.948Z,37.40
2018-10-21T07:52:08.009Z,34.17
2018-10-21T07:54:39.133Z,36.37
2018-10-21T07:57:10.526Z,32.30
2018-10-21T07:59:46.242Z,34.27
2018-10-21T08:02:17.717Z,31.67
2018-10-21T08:04:49.080Z,28.47
2018-10-21T08:07:36.092Z,30.30
2018-10-21T08:10:07.464Z,30.43
2018-10-21T08:12:38.523Z,29.27
2018-10-21T08:15:10.034Z,29.33
2018-10-21T08:17:41.321Z,31.00
2018-10-21T08:20:12.528Z,30.33
2018-10-21T08:22:44.127Z,25.27
2018-10-21T08:25:15.950Z,24.47
2018-10-21T08:27:47.123Z,24.37
2018-10-21T08:30:18.268Z,26.20
2018-10-21T08:32:49.620Z,25.37
2018-10-21T08:35:21.350Z,26.87
2018-10-21T08:37:53.067Z,27.40
2018-10-21T08:40:24.200Z,26.67
2018-10-21T08:42:56.107Z,27.37
2018-10-21T08:45:27.655Z,26.87
2018-10-21T08:47:58.764Z,30.10
2018-10-21T08:50:30.148Z,27.67
2018-10-21T08:53:01.604Z,29.13
2018-10-21T08:55:32.749Z,28.40
2018-10-21T08:58:04.078Z,27.73
2018-10-21T09:00:35.287Z,28.83
2018-10-21T09:03:07.142Z,27.93
2018-10-21T09:05:38.772Z,31.27
2018-10-21T09:08:09.887Z,30.50
2018-10-21T09:10:41.289Z,32.33
2018-10-21T09:13:12.347Z,30.70
2018-10-21T09:15:43.486Z,30.23
2018-10-21T09:18:14.840Z,31.27
2018-10-21T09:20:46.240Z,32.13
2018-10-21T09:23:17.419Z,29.57
2018-10-21T09:25:49.076Z,30.57
2018-10-21T09:28:21.163Z,31.77
2018-10-21T09:30:52.179Z,28.43
2018-10-21T09:33:23.417Z,29.60
2018-10-21T09:35:54.777Z,28.70
2018-10-21T09:38:26.227Z,30.37
2018-10-21T09:40:57.523Z,28.43
2018-10-21T09:43:29.791Z,30.87
2018-10-21T09:46:01.112Z,30.17
2018-10-21T09:48:33.167Z,30.37
2018-10-21T09:51:04.775Z,27.97
2018-10-21T09:53:35.862Z,27.63
2018-10-21T09:56:07.256Z,30.77
2018-10-21T09:58:38.786Z,29.57
2018-10-21T10:01:14.912Z,30.00
2018-10-21T10:03:46.392Z,30.27
2018-10-21T10:06:17.723Z,30.27
2018-10-21T10:08:52.370Z,30.53
2018-10-21T10:11:23.608Z,29.40
2018-10-21T10:13:54.788Z,29.93
2018-10-21T10:16:26.292Z,32.20
2018-10-21T10:18:57.383Z,31.43
2018-10-21T10:21:29.244Z,32.43
2018-10-21T10:24:01.388Z,31.60
2018-10-21T10:26:32.556Z,32.93
2018-10-21T10:29:03.859Z,31.63
2018-10-21T10:31:35.376Z,29.87
2018-10-21T10:34:06.691Z,29.83
2018-10-21T10:36:38.685Z,28.90
2018-10-21T10:39:11.728Z,28.67
2018-10-21T10:41:43.026Z,27.90
2018-10-21T10:44:14.272Z,28.27
2018-10-21T10:46:45.756Z,28.67
2018-10-21T10:49:16.889Z,28.47
2018-10-21T10:51:48.214Z,30.13
2018-10-21T10:54:19.601Z,30.03
2018-10-21T10:56:50.957Z,31.27
2018-10-21T10:59:22.758Z,28.57
2018-10-21T11:01:54.176Z,27.57
2018-10-21T11:04:25.374Z,28.87
2018-10-21T11:06:56.756Z,30.37
2018-10-21T11:09:28.090Z,30.63
2018-10-21T11:11:59.106Z,30.53
2018-10-21T11:14:30.308Z,30.47
2018-10-21T11:17:01.485Z,31.27
2018-10-21T11:19:32.680Z,31.33
2018-10-21T11:22:03.954Z,29.50
2018-10-21T11:24:39.578Z,27.40
2018-10-21T11:27:11.419Z,28.97
2018-10-21T11:29:43.263Z,27.60
2018-10-21T11:32:14.339Z,27.30
2018-10-21T11:34:45.808Z,28.50
2018-10-21T11:37:17.504Z,28.30
2018-10-21T11:39:48.748Z,29.03
2018-10-21T11:42:20.148Z,28.70
2018-10-21T11:44:51.320Z,29.00
2018-10-21T11:47:22.464Z,28.53
2018-10-21T11:49:53.537Z,28.43
2018-10-21T11:52:25.227Z,26.40
2018-10-21T11:54:56.294Z,28.93
2018-10-21T11:57:27.632Z,26.50
2018-10-21T11:59:58.841Z,28.17
2018-10-21T12:02:30.444Z,28.47
2018-10-21T12:05:01.801Z,27.67
2018-10-21T12:07:33.234Z,29.00
2018-10-21T12:10:04.770Z,27.20
2018-10-21T12:12:35.973Z,28.53
2018-10-21T12:15:07.743Z,27.53
2018-10-21T12:17:40.221Z,26.60
2018-10-21T12:20:11.508Z,26.80
2018-10-21T12:22:43.172Z,28.73
2018-10-21T12:25:14.397Z,28.17
2018-10-21T12:27:45.469Z,27.33
2018-10-21T12:30:16.672Z,28.40
2018-10-21T12:32:48.065Z,27.50
2018-10-21T12:35:19.110Z,28.40
2018-10-21T12:37:50.475Z,27.20
2018-10-21T12:40:21.631Z,27.63
2018-10-21T12:42:52.699Z,27.80
2018-10-21T12:45:23.929Z,27.53
2018-10-21T12:47:55.016Z,27.13
2018-10-21T12:50:26.387Z,26.00
2018-10-21T12:52:57.418Z,25.43
2018-10-21T12:55:28.760Z,26.10
2018-10-21T12:57:59.976Z,26.50
2018-10-21T13:00:31.163Z,26.07
2018-10-21T13:03:02.544Z,26.20
2018-10-21T13:05:33.744Z,24.57
2018-10-21T13:08:04.904Z,25.17
2018-10-21T13:10:36.318Z,24.17
2018-10-21T13:13:07.710Z,27.00
2018-10-21T13:15:39.124Z,25.53
2018-10-21T13:18:10.292Z,25.57
2018-10-21T13:20:41.276Z,26.07
2018-10-21T13:23:12.295Z,25.47
2018-10-21T13:25:44.155Z,23.73
2018-10-21T13:28:15.530Z,23.90
2018-10-21T13:30:46.719Z,23.67
2018-10-21T13:33:18.609Z,24.00
2018-10-21T13:35:49.833Z,23.27
2018-10-21T13:38:21.212Z,25.27
2018-10-21T13:40:52.573Z,22.53
2018-10-21T13:43:23.780Z,23.63
2018-10-21T13:51:49.121Z,23.67
2018-10-21T13:55:22.691Z,23.13
2018-10-21T13:57:54.346Z,23.53
2018-10-21T14:00:25.641Z,22.87
2018-10-21T14:02:56.639Z,22.30
2018-10-21T14:05:27.837Z,23.30
2018-10-21T14:07:59.294Z,22.53
2018-10-21T14:10:30.548Z,22.40
2018-10-21T14:13:01.873Z,23.03
2018-10-21T14:15:33.189Z,22.50
2018-10-21T14:18:04.388Z,21.53
2018-10-21T14:20:35.867Z,21.50
2018-10-21T14:23:07.282Z,21.10
2018-10-21T14:25:38.573Z,21.43
2018-10-21T14:28:10.224Z,21.50
2018-10-21T14:30:41.409Z,22.57
2018-10-21T14:33:12.823Z,22.07
2018-10-21T14:35:44.079Z,23.43
2018-10-21T14:38:15.273Z,23.80
2018-10-21T14:40:46.867Z,22.87
2018-10-21T14:43:18.072Z,23.67
2018-10-21T14:45:49.140Z,22.83
2018-10-21T14:48:20.447Z,23.83
2018-10-21T14:50:51.442Z,23.53
2018-10-21T14:53:23.199Z,23.40
2018-10-21T14:55:54.413Z,23.23
2018-10-21T14:58:25.594Z,24.03
2018-10-21T15:00:56.808Z,23.50
2018-10-21T15:03:28.435Z,22.83
2018-10-21T15:05:59.609Z,22.33
2018-10-21T15:08:31.098Z,22.73
2018-10-21T15:11:02.194Z,23.20
2018-10-21T15:13:33.548Z,23.20
2018-10-21T15:16:04.841Z,22.43
2018-10-21T15:18:36.138Z,22.20
2018-10-21T15:21:07.429Z,22.63
2018-10-21T15:23:38.893Z,23.03
2018-10-21T15:26:10.184Z,23.67
2018-10-21T15:28:41.471Z,21.93
2018-10-21T15:31:13.148Z,22.57
2018-10-21T15:33:44.715Z,22.83
2018-10-21T15:36:16.506Z,24.00
2018-10-21T15:38:47.857Z,23.20
2018-10-21T15:41:19.248Z,23.00
2018-10-21T15:43:50.606Z,23.87
2018-10-21T15:46:21.675Z,23.60
2018-10-21T15:48:53.176Z,22.80
2018-10-21T15:51:24.380Z,23.30
2018-10-21T15:53:56.458Z,24.43
2018-10-21T15:56:27.750Z,23.73
2018-10-21T15:58:58.953Z,23.50
2018-10-21T16:01:30.607Z,24.60
2018-10-21T16:04:02.265Z,25.47
2018-10-21T16:06:33.475Z,24.93
2018-10-21T16:09:05.616Z,26.37
2018-10-21T16:11:36.935Z,24.53
2018-10-21T16:14:08.586Z,24.70
2018-10-21T16:16:39.929Z,23.97
2018-10-21T16:19:11.217Z,24.47
2018-10-21T16:21:42.690Z,24.20
2018-10-21T16:29:02.210Z,24.17
2018-10-21T16:31:34.274Z,24.43
2018-10-21T16:34:05.720Z,24.90
2018-10-21T16:36:36.762Z,24.13
2018-10-21T16:39:10.584Z,24.40
2018-10-21T16:41:42.116Z,24.77
2018-10-21T16:44:13.304Z,24.70
2018-10-21T16:46:44.692Z,24.67
2018-10-21T16:49:23.078Z,24.83
2018-10-21T16:51:54.469Z,25.53
2018-10-21T16:54:25.811Z,26.90
2018-10-21T16:56:57.189Z,27.57
2018-10-21T16:59:28.828Z,28.13
2018-10-21T17:01:59.900Z,28.87
2018-10-21T17:04:31.402Z,31.20
2018-10-21T17:07:03.358Z,29.40
2018-10-21T17:09:34.827Z,30.50
2018-10-21T17:12:06.440Z,30.63
2018-10-21T17:14:37.669Z,32.00
2018-10-21T17:17:09.076Z,31.03
2018-10-21T17:19:40.282Z,29.60
2018-10-21T17:22:11.839Z,33.23
2018-10-21T17:24:43.280Z,32.43
2018-10-21T17:27:14.518Z,33.17
2018-10-21T17:29:45.773Z,32.87
2018-10-21T17:32:16.756Z,34.53
2018-10-21T17:34:47.928Z,32.50
2018-10-21T17:37:19.659Z,31.63
2018-10-21T17:39:50.926Z,31.43
2018-10-21T17:42:22.295Z,32.83
2018-10-21T17:44:53.502Z,33.40
2018-10-21T17:47:24.730Z,36.03
2018-10-21T17:49:56.372Z,36.30
2018-10-21T17:52:27.722Z,38.37
2018-10-21T17:54:59.607Z,36.50
2018-10-21T17:57:31.072Z,39.07
2018-10-21T18:00:02.528Z,49.93
2018-10-21T18:02:34.096Z,75.87
2018-10-21T18:05:06.855Z,94.00
2018-10-21T18:07:38.171Z,93.53
2018-10-21T18:10:09.507Z,84.13
2018-10-21T18:12:40.757Z,81.33
2018-10-21T18:15:12.559Z,62.60
2018-10-21T18:17:44.479Z,41.27
2018-10-21T18:20:15.700Z,39.93
2018-10-21T18:22:46.706Z,37.77
2018-10-21T18:25:18.115Z,38.67
2018-10-21T18:27:49.361Z,37.20
2018-10-21T18:30:20.653Z,38.93
2018-10-21T18:32:51.839Z,39.43
2018-10-21T18:35:23.040Z,39.13
2018-10-21T18:37:54.003Z,39.07
2018-10-21T18:40:26.023Z,47.30
2018-10-21T18:42:57.293Z,46.73
2018-10-21T18:45:28.397Z,48.30
2018-10-21T18:47:59.376Z,47.77
2018-10-21T18:50:30.422Z,46.00
2018-10-21T18:53:01.767Z,41.67
2018-10-21T18:55:32.959Z,46.93
2018-10-21T18:58:04.237Z,45.93
2018-10-21T19:00:35.360Z,41.03
2018-10-21T19:03:06.699Z,38.97
2018-10-21T19:05:37.964Z,38.57
2018-10-21T19:08:09.144Z,39.00
2018-10-21T19:10:40.496Z,36.90
2018-10-21T19:13:11.597Z,37.27
2018-10-21T19:15:42.888Z,36.60
2018-10-21T19:18:14.129Z,35.70
2018-10-21T19:20:45.610Z,37.53
2018-10-21T19:23:16.951Z,35.27
2018-10-21T19:25:48.780Z,35.03
2018-10-21T19:28:20.105Z,34.93
2018-10-21T19:30:51.556Z,33.77
2018-10-21T19:33:23.023Z,36.47
2018-10-21T19:35:54.400Z,68.07
2018-10-21T19:38:25.455Z,77.37
2018-10-21T19:40:56.901Z,75.20
2018-10-21T19:43:28.130Z,82.27
2018-10-21T19:46:00.386Z,83.00
2018-10-21T19:48:31.766Z,73.23
2018-10-21T19:51:03.203Z,71.90
2018-10-21T19:53:34.509Z,68.57
2018-10-21T19:56:05.643Z,62.60
2018-10-21T19:58:36.739Z,55.27
2018-10-21T20:01:08.827Z,54.60
2018-10-21T20:03:39.896Z,54.13
2018-10-21T20:06:11.059Z,53.57
2018-10-21T20:08:42.032Z,53.63
2018-10-21T20:11:13.078Z,48.87
2018-10-21T20:13:44.406Z,47.67
2018-10-21T20:16:15.734Z,48.40
2018-10-21T20:18:46.801Z,46.47
2018-10-21T20:21:18.481Z,45.73
2018-10-21T20:23:49.563Z,43.70
2018-10-21T20:26:20.562Z,41.27
2018-10-21T20:28:51.804Z,43.03
2018-10-21T20:31:23.394Z,40.87
2018-10-21T20:33:54.552Z,38.50
2018-10-21T20:36:25.571Z,38.87
2018-10-21T20:38:56.507Z,37.73
2018-10-21T20:41:27.805Z,40.37
2018-10-21T20:43:59.094Z,42.10
2018-10-21T20:46:30.283Z,47.03
2018-10-21T20:49:01.303Z,49.10
2018-10-21T20:51:32.550Z,49.50
2018-10-21T20:54:03.777Z,50.67
2018-10-21T20:56:34.901Z,53.00
2018-10-21T20:59:06.143Z,50.90
2018-10-21T21:01:37.301Z,50.13
2018-10-21T21:04:08.486Z,51.37
2018-10-21T21:06:39.654Z,49.27
2018-10-21T21:09:11.223Z,47.80
2018-10-21T21:11:42.276Z,47.60
2018-10-21T21:14:13.601Z,48.37
2018-10-21T21:16:44.595Z,50.80
2018-10-21T21:19:15.852Z,48.90
2018-10-21T21:21:46.974Z,51.50
2018-10-21T21:24:18.469Z,53.10
2018-10-21T21:26:50.049Z,53.23
2018-10-21T21:29:21.683Z,50.97
2018-10-21T21:31:52.765Z,51.50
2018-10-21T21:34:23.919Z,52.90
2018-10-21T21:36:54.939Z,53.33
2018-10-21T21:39:26.103Z,52.93
2018-10-21T21:41:57.357Z,55.03
2018-10-21T21:44:28.694Z,60.27
2018-10-21T21:46:59.895Z,80.27
2018-10-21T21:49:31.120Z,88.47
2018-10-21T21:52:02.288Z,80.33
2018-10-21T21:54:33.461Z,78.80
2018-10-21T21:57:04.632Z,67.37
2018-10-21T21:59:36.151Z,67.40
2018-10-21T22:02:07.255Z,68.20
2018-10-21T22:04:38.410Z,64.07
2018-10-21T22:07:09.729Z,60.50
2018-10-21T22:09:40.996Z,58.97
2018-10-21T22:12:12.200Z,60.43
2018-10-21T22:14:43.170Z,62.77
2018-10-21T22:17:14.375Z,64.27
2018-10-21T22:19:45.553Z,60.20
2018-10-21T22:22:16.841Z,59.87
2018-10-21T22:24:47.967Z,61.67
2018-10-21T22:27:19.140Z,62.23
2018-10-21T22:29:50.190Z,60.07
2018-10-21T22:32:21.339Z,61.93
2018-10-21T22:34:52.355Z,59.97
2018-10-21T22:37:23.604Z,60.57
2018-10-21T22:39:54.966Z,61.80
2018-10-21T22:42:25.915Z,62.27
2018-10-21T22:44:57.151Z,64.07
2018-10-21T22:47:28.495Z,59.97
2018-10-21T22:49:59.675Z,63.87
2018-10-21T22:52:30.887Z,63.90
2018-10-21T22:55:01.880Z,63.33
2018-10-21T22:57:32.880Z,60.47
2018-10-21T23:00:04.257Z,61.70
2018-10-21T23:02:35.270Z,62.83
2018-10-21T23:05:07.469Z,69.40
2018-10-21T23:07:39.325Z,70.73
2018-10-21T23:10:10.524Z,75.37
2018-10-21T23:12:41.586Z,78.00
2018-10-21T23:15:12.807Z,81.07
2018-10-21T23:17:43.781Z,76.87
2018-10-21T23:20:14.803Z,79.27
2018-10-21T23:22:45.951Z,75.63
2018-10-21T23:25:17.143Z,69.17
2018-10-21T23:27:48.353Z,65.37
2018-10-21T23:30:19.848Z,64.83
2018-10-21T23:32:51.115Z,65.90
2018-10-21T23:35:22.306Z,62.07
2018-10-21T23:37:53.575Z,59.83
2018-10-21T23:40:24.894Z,55.03
2018-10-21T23:42:56.082Z,56.20
2018-10-21T23:45:27.267Z,54.43
2018-10-21T23:47:58.180Z,51.97
2018-10-21T23:50:29.268Z,52.17
2018-10-21T23:53:00.443Z,51.27
2018-10-21T23:55:31.647Z,49.57
2018-10-21T23:58:02.871Z,51.43
